sensor_id;sensor_type;location;lat;lon;timestamp;P1;durP1;ratioP1;P2;durP2;ratioP2
26516;SDS011;14190;51.342;6.338;2023-05-21T00:00:24;15.15;;;12.05;;
26516;SDS011;14190;51.342;6.338;2023-05-21T00:02:52;17.02;;;12.60;;
26516;SDS011;14190;51.342;6.338;2023-05-21T00:05:19;15.75;;;12.25;;
26516;SDS011;14190;51.342;6.338;2023-05-21T00:07:46;19.30;;;13.45;;
26516;SDS011;14190;51.342;6.338;2023-05-21T00:10:14;18.25;;;13.83;;
26516;SDS011;14190;51.342;6.338;2023-05-21T00:12:42;19.05;;;12.65;;
26516;SDS011;14190;51.342;6.338;2023-05-21T00:15:09;18.07;;;13.00;;
26516;SDS011;14190;51.342;6.338;2023-05-21T00:17:37;15.85;;;11.73;;
26516;SDS011;14190;51.342;6.338;2023-05-21T00:20:05;15.72;;;11.78;;
26516;SDS011;14190;51.342;6.338;2023-05-21T00:22:34;16.12;;;11.93;;
26516;SDS011;14190;51.342;6.338;2023-05-21T00:25:02;17.90;;;13.00;;
26516;SDS011;14190;51.342;6.338;2023-05-21T00:27:29;20.85;;;12.60;;
26516;SDS011;14190;51.342;6.338;2023-05-21T00:29:57;14.55;;;12.63;;
26516;SDS011;14190;51.342;6.338;2023-05-21T00:32:24;15.93;;;11.83;;
26516;SDS011;14190;51.342;6.338;2023-05-21T00:34:51;17.23;;;13.22;;
26516;SDS011;14190;51.342;6.338;2023-05-21T00:37:19;17.60;;;12.93;;
26516;SDS011;14190;51.342;6.338;2023-05-21T00:39:47;18.15;;;13.50;;
26516;SDS011;14190;51.342;6.338;2023-05-21T00:42:16;16.73;;;12.20;;
26516;SDS011;14190;51.342;6.338;2023-05-21T00:44:43;16.27;;;12.35;;
26516;SDS011;14190;51.342;6.338;2023-05-21T00:47:12;17.10;;;12.93;;
26516;SDS011;14190;51.342;6.338;2023-05-21T00:49:39;20.17;;;12.95;;
26516;SDS011;14190;51.342;6.338;2023-05-21T00:52:07;17.10;;;11.60;;
26516;SDS011;14190;51.342;6.338;2023-05-21T00:54:35;17.62;;;12.63;;
26516;SDS011;14190;51.342;6.338;2023-05-21T00:57:02;15.88;;;11.83;;
26516;SDS011;14190;51.342;6.338;2023-05-21T00:59:30;15.98;;;12.80;;
26516;SDS011;14190;51.342;6.338;2023-05-21T01:01:58;19.12;;;13.03;;
26516;SDS011;14190;51.342;6.338;2023-05-21T01:04:27;17.62;;;12.65;;
26516;SDS011;14190;51.342;6.338;2023-05-21T01:06:55;17.82;;;13.28;;
26516;SDS011;14190;51.342;6.338;2023-05-21T01:09:24;19.20;;;12.68;;
26516;SDS011;14190;51.342;6.338;2023-05-21T01:11:52;19.87;;;13.15;;
26516;SDS011;14190;51.342;6.338;2023-05-21T01:14:21;16.57;;;12.18;;
26516;SDS011;14190;51.342;6.338;2023-05-21T01:16:49;18.27;;;14.05;;
26516;SDS011;14190;51.342;6.338;2023-05-21T01:19:18;19.20;;;13.48;;
26516;SDS011;14190;51.342;6.338;2023-05-21T01:21:52;18.12;;;13.80;;
26516;SDS011;14190;51.342;6.338;2023-05-21T01:24:16;17.42;;;13.30;;
26516;SDS011;14190;51.342;6.338;2023-05-21T01:26:43;19.42;;;14.73;;
26516;SDS011;14190;51.342;6.338;2023-05-21T01:29:12;21.93;;;15.20;;
26516;SDS011;14190;51.342;6.338;2023-05-21T01:34:11;23.30;;;13.78;;
26516;SDS011;14190;51.342;6.338;2023-05-21T01:36:42;18.75;;;14.40;;
26516;SDS011;14190;51.342;6.338;2023-05-21T01:41:42;15.08;;;12.58;;
26516;SDS011;14190;51.342;6.338;2023-05-21T01:44:10;17.00;;;13.70;;
26516;SDS011;14190;51.342;6.338;2023-05-21T01:46:38;16.07;;;13.62;;
26516;SDS011;14190;51.342;6.338;2023-05-21T01:49:05;19.90;;;14.03;;
26516;SDS011;14190;51.342;6.338;2023-05-21T01:51:34;19.00;;;14.07;;
26516;SDS011;14190;51.342;6.338;2023-05-21T01:54:01;19.62;;;14.40;;
26516;SDS011;14190;51.342;6.338;2023-05-21T01:56:29;21.75;;;13.68;;
26516;SDS011;14190;51.342;6.338;2023-05-21T01:58:58;20.08;;;14.30;;
26516;SDS011;14190;51.342;6.338;2023-05-21T02:01:25;20.35;;;14.35;;
26516;SDS011;14190;51.342;6.338;2023-05-21T02:03:55;18.95;;;13.45;;
26516;SDS011;14190;51.342;6.338;2023-05-21T02:06:23;16.82;;;13.20;;
26516;SDS011;14190;51.342;6.338;2023-05-21T02:08:50;20.40;;;14.23;;
26516;SDS011;14190;51.342;6.338;2023-05-21T02:11:18;18.23;;;13.88;;
26516;SDS011;14190;51.342;6.338;2023-05-21T02:13:46;17.65;;;12.82;;
26516;SDS011;14190;51.342;6.338;2023-05-21T02:16:13;16.48;;;13.38;;
26516;SDS011;14190;51.342;6.338;2023-05-21T02:18:41;22.90;;;13.22;;
26516;SDS011;14190;51.342;6.338;2023-05-21T02:21:12;18.17;;;13.80;;
26516;SDS011;14190;51.342;6.338;2023-05-21T02:23:40;18.30;;;13.75;;
26516;SDS011;14190;51.342;6.338;2023-05-21T02:26:08;19.57;;;13.50;;
26516;SDS011;14190;51.342;6.338;2023-05-21T02:28:35;18.30;;;13.08;;
26516;SDS011;14190;51.342;6.338;2023-05-21T02:31:02;18.77;;;11.83;;
26516;SDS011;14190;51.342;6.338;2023-05-21T02:33:30;16.40;;;12.68;;
26516;SDS011;14190;51.342;6.338;2023-05-21T02:35:57;21.27;;;12.55;;
26516;SDS011;14190;51.342;6.338;2023-05-21T02:38:25;16.77;;;11.10;;
26516;SDS011;14190;51.342;6.338;2023-05-21T02:40:52;17.48;;;11.83;;
26516;SDS011;14190;51.342;6.338;2023-05-21T02:43:20;16.12;;;11.65;;
26516;SDS011;14190;51.342;6.338;2023-05-21T02:45:47;14.47;;;10.68;;
26516;SDS011;14190;51.342;6.338;2023-05-21T02:48:16;15.80;;;11.68;;
26516;SDS011;14190;51.342;6.338;2023-05-21T02:50:44;13.15;;;11.10;;
26516;SDS011;14190;51.342;6.338;2023-05-21T02:53:11;18.52;;;11.90;;
26516;SDS011;14190;51.342;6.338;2023-05-21T02:55:38;15.85;;;11.63;;
26516;SDS011;14190;51.342;6.338;2023-05-21T02:58:07;13.88;;;10.53;;
26516;SDS011;14190;51.342;6.338;2023-05-21T03:00:34;13.13;;;10.38;;
26516;SDS011;14190;51.342;6.338;2023-05-21T03:03:02;15.28;;;11.33;;
26516;SDS011;14190;51.342;6.338;2023-05-21T03:05:29;17.25;;;11.88;;
26516;SDS011;14190;51.342;6.338;2023-05-21T03:07:57;15.70;;;11.25;;
26516;SDS011;14190;51.342;6.338;2023-05-21T03:10:24;21.85;;;11.85;;
26516;SDS011;14190;51.342;6.338;2023-05-21T03:12:52;12.70;;;10.55;;
26516;SDS011;14190;51.342;6.338;2023-05-21T03:15:20;13.75;;;10.32;;
26516;SDS011;14190;51.342;6.338;2023-05-21T03:17:49;13.30;;;9.35;;
26516;SDS011;14190;51.342;6.338;2023-05-21T03:20:18;14.30;;;10.90;;
26516;SDS011;14190;51.342;6.338;2023-05-21T03:22:46;16.40;;;10.98;;
26516;SDS011;14190;51.342;6.338;2023-05-21T03:25:13;15.70;;;10.48;;
26516;SDS011;14190;51.342;6.338;2023-05-21T03:27:41;14.53;;;10.88;;
26516;SDS011;14190;51.342;6.338;2023-05-21T03:30:10;15.85;;;11.18;;
26516;SDS011;14190;51.342;6.338;2023-05-21T03:32:39;15.83;;;9.28;;
26516;SDS011;14190;51.342;6.338;2023-05-21T03:35:07;12.35;;;10.10;;
26516;SDS011;14190;51.342;6.338;2023-05-21T03:37:35;13.35;;;9.53;;
26516;SDS011;14190;51.342;6.338;2023-05-21T03:40:02;11.18;;;9.78;;
26516;SDS011;14190;51.342;6.338;2023-05-21T03:42:30;12.28;;;9.38;;
26516;SDS011;14190;51.342;6.338;2023-05-21T03:44:57;12.55;;;9.70;;
26516;SDS011;14190;51.342;6.338;2023-05-21T03:47:32;15.53;;;9.20;;
26516;SDS011;14190;51.342;6.338;2023-05-21T03:50:02;11.68;;;9.55;;
26516;SDS011;14190;51.342;6.338;2023-05-21T03:52:31;11.57;;;9.63;;
26516;SDS011;14190;51.342;6.338;2023-05-21T03:54:58;14.28;;;10.38;;
26516;SDS011;14190;51.342;6.338;2023-05-21T03:57:26;13.30;;;10.53;;
26516;SDS011;14190;51.342;6.338;2023-05-21T03:59:54;12.33;;;9.68;;
26516;SDS011;14190;51.342;6.338;2023-05-21T04:02:26;13.27;;;9.77;;
26516;SDS011;14190;51.342;6.338;2023-05-21T04:07:21;12.53;;;9.63;;
26516;SDS011;14190;51.342;6.338;2023-05-21T04:09:49;15.45;;;10.20;;
26516;SDS011;14190;51.342;6.338;2023-05-21T04:12:17;14.78;;;10.18;;
26516;SDS011;14190;51.342;6.338;2023-05-21T04:14:47;14.80;;;10.67;;
26516;SDS011;14190;51.342;6.338;2023-05-21T04:17:14;10.32;;;9.23;;
26516;SDS011;14190;51.342;6.338;2023-05-21T04:19:43;17.32;;;10.65;;
26516;SDS011;14190;51.342;6.338;2023-05-21T04:22:10;14.75;;;9.65;;
26516;SDS011;14190;51.342;6.338;2023-05-21T04:24:38;14.18;;;9.40;;
26516;SDS011;14190;51.342;6.338;2023-05-21T04:27:07;14.60;;;10.10;;
26516;SDS011;14190;51.342;6.338;2023-05-21T04:29:35;16.15;;;11.22;;
26516;SDS011;14190;51.342;6.338;2023-05-21T04:32:03;16.60;;;10.18;;
26516;SDS011;14190;51.342;6.338;2023-05-21T04:34:30;14.38;;;10.15;;
26516;SDS011;14190;51.342;6.338;2023-05-21T04:36:59;13.93;;;9.53;;
26516;SDS011;14190;51.342;6.338;2023-05-21T04:39:27;13.28;;;10.55;;
26516;SDS011;14190;51.342;6.338;2023-05-21T04:41:56;13.80;;;9.93;;
26516;SDS011;14190;51.342;6.338;2023-05-21T04:44:24;19.05;;;10.32;;
26516;SDS011;14190;51.342;6.338;2023-05-21T04:46:51;11.93;;;9.85;;
26516;SDS011;14190;51.342;6.338;2023-05-21T04:49:20;13.50;;;10.35;;
26516;SDS011;14190;51.342;6.338;2023-05-21T04:51:47;12.23;;;10.20;;
26516;SDS011;14190;51.342;6.338;2023-05-21T04:56:44;11.55;;;9.38;;
26516;SDS011;14190;51.342;6.338;2023-05-21T04:59:13;12.95;;;9.90;;
26516;SDS011;14190;51.342;6.338;2023-05-21T05:01:41;13.03;;;10.55;;
26516;SDS011;14190;51.342;6.338;2023-05-21T05:04:09;13.78;;;10.93;;
26516;SDS011;14190;51.342;6.338;2023-05-21T05:06:36;14.90;;;10.35;;
26516;SDS011;14190;51.342;6.338;2023-05-21T05:09:04;15.20;;;10.23;;
26516;SDS011;14190;51.342;6.338;2023-05-21T05:11:31;13.88;;;9.28;;
26516;SDS011;14190;51.342;6.338;2023-05-21T05:13:58;13.88;;;10.32;;
26516;SDS011;14190;51.342;6.338;2023-05-21T05:16:26;11.95;;;10.40;;
26516;SDS011;14190;51.342;6.338;2023-05-21T05:18:55;16.77;;;10.08;;
26516;SDS011;14190;51.342;6.338;2023-05-21T05:21:23;16.70;;;10.55;;
26516;SDS011;14190;51.342;6.338;2023-05-21T05:23:51;19.37;;;11.10;;
26516;SDS011;14190;51.342;6.338;2023-05-21T05:26:20;15.70;;;10.88;;
26516;SDS011;14190;51.342;6.338;2023-05-21T05:28:48;11.35;;;9.35;;
26516;SDS011;14190;51.342;6.338;2023-05-21T05:31:15;13.58;;;10.08;;
26516;SDS011;14190;51.342;6.338;2023-05-21T05:33:43;11.63;;;9.75;;
26516;SDS011;14190;51.342;6.338;2023-05-21T05:36:10;13.50;;;10.40;;
26516;SDS011;14190;51.342;6.338;2023-05-21T05:38:38;13.90;;;10.40;;
26516;SDS011;14190;51.342;6.338;2023-05-21T05:41:05;13.98;;;10.35;;
26516;SDS011;14190;51.342;6.338;2023-05-21T05:43:33;14.98;;;10.75;;
26516;SDS011;14190;51.342;6.338;2023-05-21T05:46:00;17.30;;;10.93;;
26516;SDS011;14190;51.342;6.338;2023-05-21T05:48:28;14.40;;;11.03;;
26516;SDS011;14190;51.342;6.338;2023-05-21T05:50:55;15.88;;;11.00;;
26516;SDS011;14190;51.342;6.338;2023-05-21T05:53:24;13.03;;;10.68;;
26516;SDS011;14190;51.342;6.338;2023-05-21T05:55:52;13.28;;;10.08;;
26516;SDS011;14190;51.342;6.338;2023-05-21T05:58:19;14.98;;;10.58;;
26516;SDS011;14190;51.342;6.338;2023-05-21T06:00:48;14.73;;;10.53;;
26516;SDS011;14190;51.342;6.338;2023-05-21T06:03:16;12.45;;;10.65;;
26516;SDS011;14190;51.342;6.338;2023-05-21T06:05:44;17.95;;;10.63;;
26516;SDS011;14190;51.342;6.338;2023-05-21T06:08:11;15.30;;;10.72;;
26516;SDS011;14190;51.342;6.338;2023-05-21T06:10:39;15.25;;;10.65;;
26516;SDS011;14190;51.342;6.338;2023-05-21T06:13:06;15.53;;;10.78;;
26516;SDS011;14190;51.342;6.338;2023-05-21T06:15:33;12.80;;;10.55;;
26516;SDS011;14190;51.342;6.338;2023-05-21T06:18:01;16.45;;;10.13;;
26516;SDS011;14190;51.342;6.338;2023-05-21T06:20:28;12.53;;;10.78;;
26516;SDS011;14190;51.342;6.338;2023-05-21T06:22:56;14.98;;;10.65;;
26516;SDS011;14190;51.342;6.338;2023-05-21T06:25:24;12.07;;;10.25;;
26516;SDS011;14190;51.342;6.338;2023-05-21T06:27:52;14.83;;;11.35;;
26516;SDS011;14190;51.342;6.338;2023-05-21T06:30:21;13.98;;;10.43;;
26516;SDS011;14190;51.342;6.338;2023-05-21T06:32:48;14.73;;;11.12;;
26516;SDS011;14190;51.342;6.338;2023-05-21T06:35:16;13.53;;;10.93;;
26516;SDS011;14190;51.342;6.338;2023-05-21T06:37:43;12.50;;;10.53;;
26516;SDS011;14190;51.342;6.338;2023-05-21T06:40:11;13.85;;;10.70;;
26516;SDS011;14190;51.342;6.338;2023-05-21T06:42:39;13.05;;;11.60;;
26516;SDS011;14190;51.342;6.338;2023-05-21T06:45:20;13.25;;;10.78;;
26516;SDS011;14190;51.342;6.338;2023-05-21T06:47:50;18.47;;;11.60;;
26516;SDS011;14190;51.342;6.338;2023-05-21T06:50:17;13.53;;;11.55;;
26516;SDS011;14190;51.342;6.338;2023-05-21T06:52:45;15.08;;;11.83;;
26516;SDS011;14190;51.342;6.338;2023-05-21T06:55:13;15.18;;;11.05;;
26516;SDS011;14190;51.342;6.338;2023-05-21T06:57:48;20.15;;;12.00;;
26516;SDS011;14190;51.342;6.338;2023-05-21T07:00:15;15.25;;;11.35;;
26516;SDS011;14190;51.342;6.338;2023-05-21T07:02:43;14.18;;;11.50;;
26516;SDS011;14190;51.342;6.338;2023-05-21T07:05:10;20.27;;;12.13;;
26516;SDS011;14190;51.342;6.338;2023-05-21T07:07:38;15.00;;;11.48;;
26516;SDS011;14190;51.342;6.338;2023-05-21T07:10:06;17.50;;;12.65;;
26516;SDS011;14190;51.342;6.338;2023-05-21T07:12:33;21.87;;;12.28;;
26516;SDS011;14190;51.342;6.338;2023-05-21T07:15:02;15.90;;;13.10;;
26516;SDS011;14190;51.342;6.338;2023-05-21T07:17:29;18.50;;;12.03;;
26516;SDS011;14190;51.342;6.338;2023-05-21T07:19:57;18.10;;;12.65;;
26516;SDS011;14190;51.342;6.338;2023-05-21T07:22:24;19.65;;;13.43;;
26516;SDS011;14190;51.342;6.338;2023-05-21T07:24:52;17.98;;;12.68;;
26516;SDS011;14190;51.342;6.338;2023-05-21T07:27:19;15.58;;;12.43;;
26516;SDS011;14190;51.342;6.338;2023-05-21T07:29:46;19.00;;;13.38;;
26516;SDS011;14190;51.342;6.338;2023-05-21T07:32:14;19.55;;;13.15;;
26516;SDS011;14190;51.342;6.338;2023-05-21T07:34:42;17.45;;;13.72;;
26516;SDS011;14190;51.342;6.338;2023-05-21T07:37:09;15.53;;;13.13;;
26516;SDS011;14190;51.342;6.338;2023-05-21T07:39:37;18.15;;;12.35;;
26516;SDS011;14190;51.342;6.338;2023-05-21T07:42:04;18.17;;;13.48;;
26516;SDS011;14190;51.342;6.338;2023-05-21T07:44:32;15.18;;;12.98;;
26516;SDS011;14190;51.342;6.338;2023-05-21T07:46:59;15.88;;;13.58;;
26516;SDS011;14190;51.342;6.338;2023-05-21T07:49:27;18.30;;;13.95;;
26516;SDS011;14190;51.342;6.338;2023-05-21T07:51:54;16.02;;;14.05;;
26516;SDS011;14190;51.342;6.338;2023-05-21T07:54:23;18.35;;;13.90;;
26516;SDS011;14190;51.342;6.338;2023-05-21T07:56:51;17.05;;;13.98;;
26516;SDS011;14190;51.342;6.338;2023-05-21T07:59:26;19.02;;;13.65;;
26516;SDS011;14190;51.342;6.338;2023-05-21T08:01:54;20.45;;;13.88;;
26516;SDS011;14190;51.342;6.338;2023-05-21T08:04:21;17.37;;;13.65;;
26516;SDS011;14190;51.342;6.338;2023-05-21T08:06:50;20.82;;;14.13;;
26516;SDS011;14190;51.342;6.338;2023-05-21T08:09:17;18.17;;;13.85;;
26516;SDS011;14190;51.342;6.338;2023-05-21T08:11:45;23.22;;;13.93;;
26516;SDS011;14190;51.342;6.338;2023-05-21T08:14:13;19.07;;;13.55;;
26516;SDS011;14190;51.342;6.338;2023-05-21T08:16:41;22.05;;;14.73;;
26516;SDS011;14190;51.342;6.338;2023-05-21T08:19:08;19.85;;;14.58;;
26516;SDS011;14190;51.342;6.338;2023-05-21T08:21:36;18.30;;;14.78;;
26516;SDS011;14190;51.342;6.338;2023-05-21T08:24:03;19.52;;;14.60;;
26516;SDS011;14190;51.342;6.338;2023-05-21T08:26:33;18.40;;;14.38;;
26516;SDS011;14190;51.342;6.338;2023-05-21T08:29:02;20.00;;;14.53;;
26516;SDS011;14190;51.342;6.338;2023-05-21T08:31:29;21.97;;;14.87;;
26516;SDS011;14190;51.342;6.338;2023-05-21T08:33:56;24.05;;;14.25;;
26516;SDS011;14190;51.342;6.338;2023-05-21T08:36:25;17.87;;;13.80;;
26516;SDS011;14190;51.342;6.338;2023-05-21T08:38:55;20.20;;;14.38;;
26516;SDS011;14190;51.342;6.338;2023-05-21T08:41:27;18.70;;;15.13;;
26516;SDS011;14190;51.342;6.338;2023-05-21T08:43:55;19.80;;;15.03;;
26516;SDS011;14190;51.342;6.338;2023-05-21T08:46:24;20.95;;;16.55;;
26516;SDS011;14190;51.342;6.338;2023-05-21T08:48:53;18.70;;;15.40;;
26516;SDS011;14190;51.342;6.338;2023-05-21T08:51:21;18.82;;;15.72;;
26516;SDS011;14190;51.342;6.338;2023-05-21T08:53:50;22.30;;;16.17;;
26516;SDS011;14190;51.342;6.338;2023-05-21T08:56:18;21.70;;;15.60;;
26516;SDS011;14190;51.342;6.338;2023-05-21T08:58:54;22.98;;;14.60;;
26516;SDS011;14190;51.342;6.338;2023-05-21T09:01:24;17.07;;;14.03;;
26516;SDS011;14190;51.342;6.338;2023-05-21T09:06:20;18.48;;;14.20;;
26516;SDS011;14190;51.342;6.338;2023-05-21T09:08:51;18.60;;;13.78;;
26516;SDS011;14190;51.342;6.338;2023-05-21T09:11:22;17.98;;;14.73;;
26516;SDS011;14190;51.342;6.338;2023-05-21T09:13:51;19.02;;;14.70;;
26516;SDS011;14190;51.342;6.338;2023-05-21T09:16:21;23.70;;;14.85;;
26516;SDS011;14190;51.342;6.338;2023-05-21T09:18:49;20.32;;;14.75;;
26516;SDS011;14190;51.342;6.338;2023-05-21T09:21:22;15.83;;;14.13;;
26516;SDS011;14190;51.342;6.338;2023-05-21T09:23:56;15.78;;;13.80;;
26516;SDS011;14190;51.342;6.338;2023-05-21T09:26:24;22.70;;;14.95;;
26516;SDS011;14190;51.342;6.338;2023-05-21T09:28:56;18.57;;;14.23;;
26516;SDS011;14190;51.342;6.338;2023-05-21T09:31:24;23.40;;;15.63;;
26516;SDS011;14190;51.342;6.338;2023-05-21T09:33:54;18.55;;;14.98;;
26516;SDS011;14190;51.342;6.338;2023-05-21T09:36:21;21.75;;;14.23;;
26516;SDS011;14190;51.342;6.338;2023-05-21T09:38:49;16.23;;;14.03;;
26516;SDS011;14190;51.342;6.338;2023-05-21T09:41:17;20.25;;;14.35;;
26516;SDS011;14190;51.342;6.338;2023-05-21T09:43:45;20.17;;;15.45;;
26516;SDS011;14190;51.342;6.338;2023-05-21T09:46:13;18.30;;;15.60;;
26516;SDS011;14190;51.342;6.338;2023-05-21T09:48:42;22.52;;;14.53;;
26516;SDS011;14190;51.342;6.338;2023-05-21T09:53:59;16.07;;;14.15;;
26516;SDS011;14190;51.342;6.338;2023-05-21T09:56:13;18.77;;;14.10;;
26516;SDS011;14190;51.342;6.338;2023-05-21T09:58:41;17.98;;;14.33;;
26516;SDS011;14190;51.342;6.338;2023-05-21T10:01:09;17.20;;;14.68;;
26516;SDS011;14190;51.342;6.338;2023-05-21T10:03:37;16.90;;;15.03;;
26516;SDS011;14190;51.342;6.338;2023-05-21T10:06:07;21.57;;;16.52;;
26516;SDS011;14190;51.342;6.338;2023-05-21T10:08:35;23.38;;;17.75;;
26516;SDS011;14190;51.342;6.338;2023-05-21T10:11:04;18.32;;;15.70;;
26516;SDS011;14190;51.342;6.338;2023-05-21T10:13:33;24.67;;;16.02;;
26516;SDS011;14190;51.342;6.338;2023-05-21T10:16:00;23.05;;;16.82;;
26516;SDS011;14190;51.342;6.338;2023-05-21T10:18:29;18.00;;;14.65;;
26516;SDS011;14190;51.342;6.338;2023-05-21T10:20:56;17.65;;;14.03;;
26516;SDS011;14190;51.342;6.338;2023-05-21T10:23:25;20.57;;;15.18;;
26516;SDS011;14190;51.342;6.338;2023-05-21T10:25:53;20.30;;;15.75;;
26516;SDS011;14190;51.342;6.338;2023-05-21T10:28:21;20.12;;;14.28;;
26516;SDS011;14190;51.342;6.338;2023-05-21T10:30:48;21.87;;;15.00;;
26516;SDS011;14190;51.342;6.338;2023-05-21T10:33:16;22.60;;;15.88;;
26516;SDS011;14190;51.342;6.338;2023-05-21T10:35:43;19.23;;;15.98;;
26516;SDS011;14190;51.342;6.338;2023-05-21T10:38:13;25.72;;;16.45;;
26516;SDS011;14190;51.342;6.338;2023-05-21T10:40:42;18.50;;;14.50;;
26516;SDS011;14190;51.342;6.338;2023-05-21T10:45:46;22.45;;;16.60;;
26516;SDS011;14190;51.342;6.338;2023-05-21T10:58:44;18.37;;;16.45;;
26516;SDS011;14190;51.342;6.338;2023-05-21T11:01:08;21.30;;;16.15;;
26516;SDS011;14190;51.342;6.338;2023-05-21T11:03:36;24.98;;;18.45;;
26516;SDS011;14190;51.342;6.338;2023-05-21T11:06:03;26.17;;;17.07;;
26516;SDS011;14190;51.342;6.338;2023-05-21T11:08:32;20.68;;;18.15;;
26516;SDS011;14190;51.342;6.338;2023-05-21T11:11:02;25.52;;;19.98;;
26516;SDS011;14190;51.342;6.338;2023-05-21T11:14:06;21.48;;;19.17;;
26516;SDS011;14190;51.342;6.338;2023-05-21T11:16:05;24.45;;;19.20;;
26516;SDS011;14190;51.342;6.338;2023-05-21T11:21:16;20.68;;;18.45;;
26516;SDS011;14190;51.342;6.338;2023-05-21T11:23:51;23.67;;;18.82;;
26516;SDS011;14190;51.342;6.338;2023-05-21T11:26:18;26.50;;;19.45;;
26516;SDS011;14190;51.342;6.338;2023-05-21T11:31:33;22.65;;;19.85;;
26516;SDS011;14190;51.342;6.338;2023-05-21T11:36:40;20.70;;;18.17;;
26516;SDS011;14190;51.342;6.338;2023-05-21T11:39:11;24.95;;;19.80;;
26516;SDS011;14190;51.342;6.338;2023-05-21T11:44:07;22.30;;;17.77;;
26516;SDS011;14190;51.342;6.338;2023-05-21T11:46:34;23.07;;;18.40;;
26516;SDS011;14190;51.342;6.338;2023-05-21T11:49:02;23.92;;;18.50;;
26516;SDS011;14190;51.342;6.338;2023-05-21T11:51:29;21.55;;;18.67;;
26516;SDS011;14190;51.342;6.338;2023-05-21T11:53:57;24.47;;;18.20;;
26516;SDS011;14190;51.342;6.338;2023-05-21T11:56:24;23.55;;;18.30;;
26516;SDS011;14190;51.342;6.338;2023-05-21T11:58:55;23.52;;;17.73;;
26516;SDS011;14190;51.342;6.338;2023-05-21T12:01:25;24.20;;;20.25;;
26516;SDS011;14190;51.342;6.338;2023-05-21T12:03:51;23.18;;;18.23;;
26516;SDS011;14190;51.342;6.338;2023-05-21T12:06:24;27.58;;;19.95;;
26516;SDS011;14190;51.342;6.338;2023-05-21T12:08:51;24.40;;;18.67;;
26516;SDS011;14190;51.342;6.338;2023-05-21T12:11:20;23.20;;;18.48;;
26516;SDS011;14190;51.342;6.338;2023-05-21T12:13:47;21.55;;;17.80;;
26516;SDS011;14190;51.342;6.338;2023-05-21T12:16:16;25.75;;;19.05;;
26516;SDS011;14190;51.342;6.338;2023-05-21T12:18:43;21.70;;;18.48;;
26516;SDS011;14190;51.342;6.338;2023-05-21T12:21:11;25.17;;;19.73;;
26516;SDS011;14190;51.342;6.338;2023-05-21T12:23:38;24.85;;;18.25;;
26516;SDS011;14190;51.342;6.338;2023-05-21T12:26:05;21.20;;;18.42;;
26516;SDS011;14190;51.342;6.338;2023-05-21T12:28:33;23.27;;;17.30;;
26516;SDS011;14190;51.342;6.338;2023-05-21T12:31:01;23.47;;;19.20;;
26516;SDS011;14190;51.342;6.338;2023-05-21T12:33:32;25.60;;;17.73;;
26516;SDS011;14190;51.342;6.338;2023-05-21T12:35:58;28.40;;;18.40;;
26516;SDS011;14190;51.342;6.338;2023-05-21T12:38:29;25.55;;;17.80;;
26516;SDS011;14190;51.342;6.338;2023-05-21T12:40:54;23.73;;;18.77;;
26516;SDS011;14190;51.342;6.338;2023-05-21T12:43:21;23.40;;;16.60;;
26516;SDS011;14190;51.342;6.338;2023-05-21T12:45:49;24.57;;;17.17;;
26516;SDS011;14190;51.342;6.338;2023-05-21T12:48:17;22.07;;;18.02;;
26516;SDS011;14190;51.342;6.338;2023-05-21T12:50:44;17.73;;;15.58;;
26516;SDS011;14190;51.342;6.338;2023-05-21T12:53:12;21.50;;;18.27;;
26516;SDS011;14190;51.342;6.338;2023-05-21T12:55:39;21.37;;;17.52;;
26516;SDS011;14190;51.342;6.338;2023-05-21T12:58:06;25.45;;;18.73;;
26516;SDS011;14190;51.342;6.338;2023-05-21T13:00:34;24.30;;;18.27;;
26516;SDS011;14190;51.342;6.338;2023-05-21T13:03:01;23.83;;;18.60;;
26516;SDS011;14190;51.342;6.338;2023-05-21T13:05:31;21.00;;;17.32;;
26516;SDS011;14190;51.342;6.338;2023-05-21T13:07:58;24.70;;;18.07;;
26516;SDS011;14190;51.342;6.338;2023-05-21T13:10:26;29.48;;;19.25;;
26516;SDS011;14190;51.342;6.338;2023-05-21T13:12:53;28.00;;;19.15;;
26516;SDS011;14190;51.342;6.338;2023-05-21T13:15:21;21.93;;;19.62;;
26516;SDS011;14190;51.342;6.338;2023-05-21T13:17:48;22.58;;;17.57;;
26516;SDS011;14190;51.342;6.338;2023-05-21T13:20:17;24.70;;;18.37;;
26516;SDS011;14190;51.342;6.338;2023-05-21T13:22:47;24.57;;;18.42;;
26516;SDS011;14190;51.342;6.338;2023-05-21T13:25:16;22.98;;;18.32;;
26516;SDS011;14190;51.342;6.338;2023-05-21T13:30:12;20.75;;;17.10;;
26516;SDS011;14190;51.342;6.338;2023-05-21T13:32:40;22.67;;;18.10;;
26516;SDS011;14190;51.342;6.338;2023-05-21T13:35:07;20.92;;;16.27;;
26516;SDS011;14190;51.342;6.338;2023-05-21T13:37:35;23.00;;;17.37;;
26516;SDS011;14190;51.342;6.338;2023-05-21T13:40:06;20.37;;;16.30;;
26516;SDS011;14190;51.342;6.338;2023-05-21T13:42:34;20.55;;;17.37;;
26516;SDS011;14190;51.342;6.338;2023-05-21T13:45:08;27.48;;;18.70;;
26516;SDS011;14190;51.342;6.338;2023-05-21T13:47:32;19.05;;;15.85;;
26516;SDS011;14190;51.342;6.338;2023-05-21T13:49:59;23.45;;;18.30;;
26516;SDS011;14190;51.342;6.338;2023-05-21T13:52:27;19.65;;;17.57;;
26516;SDS011;14190;51.342;6.338;2023-05-21T13:54:54;22.60;;;17.62;;
26516;SDS011;14190;51.342;6.338;2023-05-21T13:57:22;21.23;;;17.32;;
26516;SDS011;14190;51.342;6.338;2023-05-21T13:59:51;19.35;;;15.95;;
26516;SDS011;14190;51.342;6.338;2023-05-21T14:02:19;23.80;;;16.48;;
26516;SDS011;14190;51.342;6.338;2023-05-21T14:04:46;20.68;;;17.23;;
26516;SDS011;14190;51.342;6.338;2023-05-21T14:07:14;18.98;;;14.35;;
26516;SDS011;14190;51.342;6.338;2023-05-21T14:09:42;19.52;;;17.27;;
26516;SDS011;14190;51.342;6.338;2023-05-21T14:12:09;23.22;;;18.55;;
26516;SDS011;14190;51.342;6.338;2023-05-21T14:14:37;21.45;;;16.87;;
26516;SDS011;14190;51.342;6.338;2023-05-21T14:17:04;20.27;;;16.55;;
26516;SDS011;14190;51.342;6.338;2023-05-21T14:19:32;21.05;;;16.97;;
26516;SDS011;14190;51.342;6.338;2023-05-21T14:21:59;24.75;;;16.93;;
26516;SDS011;14190;51.342;6.338;2023-05-21T14:24:27;23.22;;;16.10;;
26516;SDS011;14190;51.342;6.338;2023-05-21T14:26:54;21.10;;;15.40;;
26516;SDS011;14190;51.342;6.338;2023-05-21T14:29:21;28.83;;;17.35;;
26516;SDS011;14190;51.342;6.338;2023-05-21T14:31:49;18.50;;;16.02;;
26516;SDS011;14190;51.342;6.338;2023-05-21T14:34:16;21.52;;;17.70;;
26516;SDS011;14190;51.342;6.338;2023-05-21T14:36:43;22.17;;;16.05;;
26516;SDS011;14190;51.342;6.338;2023-05-21T14:39:11;19.35;;;14.93;;
26516;SDS011;14190;51.342;6.338;2023-05-21T14:41:38;25.10;;;15.83;;
26516;SDS011;14190;51.342;6.338;2023-05-21T14:44:06;18.35;;;15.03;;
26516;SDS011;14190;51.342;6.338;2023-05-21T14:46:33;18.10;;;15.45;;
26516;SDS011;14190;51.342;6.338;2023-05-21T14:49:01;22.52;;;16.50;;
26516;SDS011;14190;51.342;6.338;2023-05-21T14:51:29;19.17;;;16.07;;
26516;SDS011;14190;51.342;6.338;2023-05-21T14:53:56;18.10;;;15.45;;
26516;SDS011;14190;51.342;6.338;2023-05-21T14:56:24;29.25;;;17.85;;
26516;SDS011;14190;51.342;6.338;2023-05-21T14:58:54;18.65;;;16.37;;
26516;SDS011;14190;51.342;6.338;2023-05-21T15:01:22;22.82;;;17.73;;
26516;SDS011;14190;51.342;6.338;2023-05-21T15:03:49;27.25;;;17.35;;
26516;SDS011;14190;51.342;6.338;2023-05-21T15:06:16;21.17;;;16.60;;
26516;SDS011;14190;51.342;6.338;2023-05-21T15:08:44;29.45;;;20.27;;